Terminal Aerodrome Forecast
Issued by NWS

Home | Current Version | Previous Version | Text Only | Print | Product List | Glossary On
Versions: 1 2 3 4 5 6 7 8 9 10 11 12 13 14 15 16
000
FTUS45 KABQ 032300
TAFSAF
TAF
KSAF 032330Z 0400/0424 13009KT P6SM VCSH BKN080 BKN120
     FM040300 36007KT P6SM BKN090 BKN140
     FM040900 01007KT P6SM FEW090 SCT130
     FM041800 20008KT P6SM BKN080 BKN120 PROB30 0420/0424 -TSRA
      BKN060CB=

USA.gov is the U.S. government's official web portal to all federal, state and local government web resources and services.